Terminal Aerodrome Forecast
Issued by NWS Raleigh/Durham, NC

Home | Current Version | Previous Version | Text Only | Print | Product List | Glossary On
Versions: 1 2 3 4 5 6 7 8 9 10 11 12 13 14 15 16 17 18 19 20 21 22 23 24 25 26 27 28 29 30
000
FTUS42 KRAH 300537
TAFFAY
TAF
KFAY 300537Z 3006/0106 12007KT 3SM BR OVC005
      TEMPO 3006/3010 1SM BR OVC002
     FM301000 13006KT 1SM BR OVC002
     FM301400 16006KT P6SM BKN015
     FM301800 19012KT P6SM VCTS BKN020CB
     FM302300 24010KT P6SM SCT040=

USA.gov is the U.S. government's official web portal to all federal, state and local government web resources and services.